LIRF Airport Information

Runway Information
Runway 07 Length 10849 ft width 148 ft
Elevation 7 ft Threshold 1365 ft Heading 70
Runway 25 Length 10849 ft Width 148 ft
Elevation 7 ft Threshold 0 ft Heading 250
Runway 16C Length 11818 ft width 148 ft
Elevation 11 ft Threshold 0 ft Heading 163
Runway 34C Length 11818 ft Width 148 ft
Elevation 4 ft Threshold 0 ft Heading 343
Runway 16L Length 12795 ft width 197 ft
Elevation 14 ft Threshold 0 ft Heading 163
Runway 34R Length 12795 ft Width 197 ft
Elevation 7 ft Threshold 0 ft Heading 343
Runway 16R Length 12795 ft width 197 ft
Elevation 7 ft Threshold 0 ft Heading 163
Runway 34L Length 12795 ft Width 197 ft
Elevation 8 ft Threshold 1053 ft Heading 343
Airport Frequencies
Type ARR Name ROMA DIREC Frequency 119.2 MHZ
Type ATIS Name ATIS Frequency 114.9 MHZ
Type CLD Name FIUME RAMP Frequency 121.725 MHZ
Type GND Name FIUME GND/ Frequency 121.8 MHZ
Type TWR Name FIUME TWR Frequency 118.7 MHZ
Airport Navaids
Type NDB Name Fiumicino Frequency 354 KHZ
Type NDB Name Fiumicino Frequency 421 KHZ
Type NDB Name Fiumicino Frequency 345 KHZ
Type VOR-DME Name Ostia Frequency 114900 KHZ
Type NDB Name Ostia Frequency 321 KHZ
Airport Weather Information & NOTAM
ADDS - METARS form results

(2048 UTC 22 February 2018)
 
METAR text: LIRF 222020Z 06006KT 030V090 9999 -RA FEW024 BKN035 08/07 Q1000 881900// NOSIG
Conditions at: LIRF (ROME/FIUMICINO , IT) observed 2020 UTC 22 February 2018
Temperature: 8.0°C (46°F)
Dewpoint: 7.0°C (45°F) [RH = 93%]
Pressure (altimeter): 29.53 inches Hg (1000.0 mb)
Winds: from the ENE (60 degrees) at 7 MPH (6 knots; 3.1 m/s)
Visibility: 6 or more miles (10+ km)
Ceiling: 3500 feet AGL
Clouds: few clouds at 2400 feet AGL
broken clouds at 3500 feet AGL
Weather: -RA  (light rain)

METAR text: LIRF 221950Z 08010KT 040V110 9999 -RA FEW030 BKN040 09/07 Q1000 RERA 881900// NOSIG
Conditions at: LIRF (ROME/FIUMICINO , IT) observed 1950 UTC 22 February 2018
Temperature: 9.0°C (48°F)
Dewpoint: 7.0°C (45°F) [RH = 87%]
Pressure (altimeter): 29.53 inches Hg (1000.0 mb)
Winds: from the E (80 degrees) at 12 MPH (10 knots; 5.2 m/s)
Visibility: 6 or more miles (10+ km)
Ceiling: 4000 feet AGL
Clouds: few clouds at 3000 feet AGL
broken clouds at 4000 feet AGL
Weather: -RA  (light rain)